sensor_id;sensor_type;location;lat;lon;timestamp;P1;P2;P0
44045;PMS7003;29709;52.396;16.796;2023-05-19T00:01:35;0;0;0
44045;PMS7003;29709;52.396;16.796;2023-05-19T00:04:49;0;0;0
44045;PMS7003;29709;52.396;16.796;2023-05-19T00:08:03;1;0;0
44045;PMS7003;29709;52.396;16.796;2023-05-19T00:11:17;0;0;0
44045;PMS7003;29709;52.396;16.796;2023-05-19T00:14:30;0;0;0
44045;PMS7003;29709;52.396;16.796;2023-05-19T00:17:43;0;0;0
44045;PMS7003;29709;52.396;16.796;2023-05-19T00:20:57;0;0;0
44045;PMS7003;29709;52.396;16.796;2023-05-19T00:24:11;0;0;0
44045;PMS7003;29709;52.396;16.796;2023-05-19T00:27:24;0;0;0
44045;PMS7003;29709;52.396;16.796;2023-05-19T00:30:38;0;0;0
44045;PMS7003;29709;52.396;16.796;2023-05-19T00:33:51;0;0;0
44045;PMS7003;29709;52.396;16.796;2023-05-19T00:37:04;0;0;0
44045;PMS7003;29709;52.396;16.796;2023-05-19T00:40:17;0;0;0
44045;PMS7003;29709;52.396;16.796;2023-05-19T00:43:30;0;0;0
44045;PMS7003;29709;52.396;16.796;2023-05-19T00:46:47;0;0;0
44045;PMS7003;29709;52.396;16.796;2023-05-19T00:50:00;0;0;0
44045;PMS7003;29709;52.396;16.796;2023-05-19T00:53:13;0;0;0
44045;PMS7003;29709;52.396;16.796;2023-05-19T00:56:30;0;0;0
44045;PMS7003;29709;52.396;16.796;2023-05-19T00:59:44;0;0;0
44045;PMS7003;29709;52.396;16.796;2023-05-19T01:02:57;0;0;0
44045;PMS7003;29709;52.396;16.796;2023-05-19T01:06:10;0;0;0
44045;PMS7003;29709;52.396;16.796;2023-05-19T01:09:24;0;0;0
44045;PMS7003;29709;52.396;16.796;2023-05-19T01:12:37;1;0;0
44045;PMS7003;29709;52.396;16.796;2023-05-19T01:29:46;0;0;0
44045;PMS7003;29709;52.396;16.796;2023-05-19T01:33:07;0;0;0
44045;PMS7003;29709;52.396;16.796;2023-05-19T01:36:23;0;0;0
44045;PMS7003;29709;52.396;16.796;2023-05-19T01:39:39;0;0;0
44045;PMS7003;29709;52.396;16.796;2023-05-19T01:42:55;0;0;0
44045;PMS7003;29709;52.396;16.796;2023-05-19T01:46:10;0;0;0
44045;PMS7003;29709;52.396;16.796;2023-05-19T01:49:23;0;0;0
44045;PMS7003;29709;52.396;16.796;2023-05-19T01:52:37;0;0;0
44045;PMS7003;29709;52.396;16.796;2023-05-19T01:55:51;1;0;0
44045;PMS7003;29709;52.396;16.796;2023-05-19T02:09:24;0;0;0
44045;PMS7003;29709;52.396;16.796;2023-05-19T02:12:43;0;0;0
44045;PMS7003;29709;52.396;16.796;2023-05-19T02:16:00;0;0;0
44045;PMS7003;29709;52.396;16.796;2023-05-19T02:19:20;1;0;0
44045;PMS7003;29709;52.396;16.796;2023-05-19T02:22:35;0;0;0
44045;PMS7003;29709;52.396;16.796;2023-05-19T02:25:51;1;1;0
44045;PMS7003;29709;52.396;16.796;2023-05-19T02:29:04;0;0;0
44045;PMS7003;29709;52.396;16.796;2023-05-19T02:32:18;0;0;0
44045;PMS7003;29709;52.396;16.796;2023-05-19T02:35:32;0;0;0
44045;PMS7003;29709;52.396;16.796;2023-05-19T02:38:45;3;1;1
44045;PMS7003;29709;52.396;16.796;2023-05-19T02:41:58;0;0;0
44045;PMS7003;29709;52.396;16.796;2023-05-19T02:45:12;1;0;0
44045;PMS7003;29709;52.396;16.796;2023-05-19T02:48:26;0;0;0
44045;PMS7003;29709;52.396;16.796;2023-05-19T02:51:39;0;0;0
44045;PMS7003;29709;52.396;16.796;2023-05-19T02:54:52;0;0;0
44045;PMS7003;29709;52.396;16.796;2023-05-19T02:58:05;0;0;0
44045;PMS7003;29709;52.396;16.796;2023-05-19T03:01:19;0;0;0
44045;PMS7003;29709;52.396;16.796;2023-05-19T03:04:34;0;0;0
44045;PMS7003;29709;52.396;16.796;2023-05-19T03:07:55;0;0;0
44045;PMS7003;29709;52.396;16.796;2023-05-19T03:11:08;0;0;0
44045;PMS7003;29709;52.396;16.796;2023-05-19T03:14:22;0;0;0
44045;PMS7003;29709;52.396;16.796;2023-05-19T03:17:36;1;0;0
44045;PMS7003;29709;52.396;16.796;2023-05-19T03:20:49;0;0;0
44045;PMS7003;29709;52.396;16.796;2023-05-19T03:24:02;0;0;0
44045;PMS7003;29709;52.396;16.796;2023-05-19T03:27:16;0;0;0
44045;PMS7003;29709;52.396;16.796;2023-05-19T03:30:29;0;0;0
44045;PMS7003;29709;52.396;16.796;2023-05-19T03:33:42;0;0;0
44045;PMS7003;29709;52.396;16.796;2023-05-19T03:36:55;0;0;0
44045;PMS7003;29709;52.396;16.796;2023-05-19T03:40:09;1;0;0
44045;PMS7003;29709;52.396;16.796;2023-05-19T03:43:22;1;0;0
44045;PMS7003;29709;52.396;16.796;2023-05-19T03:46:35;0;0;0
44045;PMS7003;29709;52.396;16.796;2023-05-19T03:49:49;2;1;1
44045;PMS7003;29709;52.396;16.796;2023-05-19T03:53:02;0;0;0
44045;PMS7003;29709;52.396;16.796;2023-05-19T03:56:15;3;0;0
44045;PMS7003;29709;52.396;16.796;2023-05-19T03:59:29;0;0;0
44045;PMS7003;29709;52.396;16.796;2023-05-19T04:02:43;0;0;0
44045;PMS7003;29709;52.396;16.796;2023-05-19T04:05:56;0;0;0
44045;PMS7003;29709;52.396;16.796;2023-05-19T04:09:10;6;1;0
44045;PMS7003;29709;52.396;16.796;2023-05-19T04:12:25;1;1;1
44045;PMS7003;29709;52.396;16.796;2023-05-19T04:15:39;1;0;0
44045;PMS7003;29709;52.396;16.796;2023-05-19T04:18:53;2;1;0
44045;PMS7003;29709;52.396;16.796;2023-05-19T04:22:06;3;1;0
44045;PMS7003;29709;52.396;16.796;2023-05-19T04:25:19;1;0;0
44045;PMS7003;29709;52.396;16.796;2023-05-19T04:28:32;1;1;1
44045;PMS7003;29709;52.396;16.796;2023-05-19T04:31:51;2;2;2
44045;PMS7003;29709;52.396;16.796;2023-05-19T04:35:05;2;2;1
44045;PMS7003;29709;52.396;16.796;2023-05-19T04:38:18;1;1;1
44045;PMS7003;29709;52.396;16.796;2023-05-19T04:41:33;1;0;0
44045;PMS7003;29709;52.396;16.796;2023-05-19T04:44:46;1;1;0
44045;PMS7003;29709;52.396;16.796;2023-05-19T04:48:03;1;1;1
44045;PMS7003;29709;52.396;16.796;2023-05-19T04:51:16;4;2;2
44045;PMS7003;29709;52.396;16.796;2023-05-19T04:54:29;3;3;2
44045;PMS7003;29709;52.396;16.796;2023-05-19T04:57:43;2;2;1
44045;PMS7003;29709;52.396;16.796;2023-05-19T05:00:56;0;0;0
44045;PMS7003;29709;52.396;16.796;2023-05-19T05:04:10;2;2;2
44045;PMS7003;29709;52.396;16.796;2023-05-19T05:07:23;1;1;0
44045;PMS7003;29709;52.396;16.796;2023-05-19T05:10:36;2;0;0
44045;PMS7003;29709;52.396;16.796;2023-05-19T05:13:49;1;1;0
44045;PMS7003;29709;52.396;16.796;2023-05-19T05:17:04;0;0;0
44045;PMS7003;29709;52.396;16.796;2023-05-19T05:20:18;2;1;1
44045;PMS7003;29709;52.396;16.796;2023-05-19T05:23:31;1;1;0
44045;PMS7003;29709;52.396;16.796;2023-05-19T05:26:45;2;1;1
44045;PMS7003;29709;52.396;16.796;2023-05-19T05:29:58;1;1;0
44045;PMS7003;29709;52.396;16.796;2023-05-19T05:33:13;0;0;0
44045;PMS7003;29709;52.396;16.796;2023-05-19T05:36:27;1;0;0
44045;PMS7003;29709;52.396;16.796;2023-05-19T05:39:42;1;1;0
44045;PMS7003;29709;52.396;16.796;2023-05-19T05:42:55;1;1;0
44045;PMS7003;29709;52.396;16.796;2023-05-19T05:46:10;2;1;1
44045;PMS7003;29709;52.396;16.796;2023-05-19T05:49:23;1;1;1
44045;PMS7003;29709;52.396;16.796;2023-05-19T05:52:37;1;1;0
44045;PMS7003;29709;52.396;16.796;2023-05-19T05:55:53;2;2;2
44045;PMS7003;29709;52.396;16.796;2023-05-19T05:59:06;0;0;0
44045;PMS7003;29709;52.396;16.796;2023-05-19T06:02:19;2;2;1
44045;PMS7003;29709;52.396;16.796;2023-05-19T06:05:34;2;2;1
44045;PMS7003;29709;52.396;16.796;2023-05-19T06:08:47;2;1;1
44045;PMS7003;29709;52.396;16.796;2023-05-19T06:12:01;1;1;1
44045;PMS7003;29709;52.396;16.796;2023-05-19T06:15:14;2;1;1
44045;PMS7003;29709;52.396;16.796;2023-05-19T06:18:28;0;0;0
44045;PMS7003;29709;52.396;16.796;2023-05-19T06:21:41;3;1;1
44045;PMS7003;29709;52.396;16.796;2023-05-19T06:24:55;4;2;1
44045;PMS7003;29709;52.396;16.796;2023-05-19T06:28:08;1;1;1
44045;PMS7003;29709;52.396;16.796;2023-05-19T06:31:21;4;2;1
44045;PMS7003;29709;52.396;16.796;2023-05-19T06:34:34;2;1;0
44045;PMS7003;29709;52.396;16.796;2023-05-19T06:37:51;2;1;1
44045;PMS7003;29709;52.396;16.796;2023-05-19T06:41:05;3;2;1
44045;PMS7003;29709;52.396;16.796;2023-05-19T06:44:18;4;2;1
44045;PMS7003;29709;52.396;16.796;2023-05-19T06:47:31;2;1;1
44045;PMS7003;29709;52.396;16.796;2023-05-19T06:50:44;2;2;1
44045;PMS7003;29709;52.396;16.796;2023-05-19T06:53:57;2;1;1
44045;PMS7003;29709;52.396;16.796;2023-05-19T06:57:10;5;2;2
44045;PMS7003;29709;52.396;16.796;2023-05-19T07:00:23;3;3;2
44045;PMS7003;29709;52.396;16.796;2023-05-19T07:03:37;3;1;1
44045;PMS7003;29709;52.396;16.796;2023-05-19T07:06:51;1;1;1
44045;PMS7003;29709;52.396;16.796;2023-05-19T07:10:06;1;0;0
44045;PMS7003;29709;52.396;16.796;2023-05-19T07:13:20;2;2;1
44045;PMS7003;29709;52.396;16.796;2023-05-19T07:16:33;2;1;0
44045;PMS7003;29709;52.396;16.796;2023-05-19T07:19:46;2;1;1
44045;PMS7003;29709;52.396;16.796;2023-05-19T07:23:00;2;1;1
44045;PMS7003;29709;52.396;16.796;2023-05-19T07:26:14;1;1;1
44045;PMS7003;29709;52.396;16.796;2023-05-19T07:29:27;0;0;0
44045;PMS7003;29709;52.396;16.796;2023-05-19T07:32:40;1;1;1
44045;PMS7003;29709;52.396;16.796;2023-05-19T07:35:53;2;2;1
44045;PMS7003;29709;52.396;16.796;2023-05-19T07:39:07;3;1;1
44045;PMS7003;29709;52.396;16.796;2023-05-19T07:42:20;2;0;0
44045;PMS7003;29709;52.396;16.796;2023-05-19T07:45:33;1;1;1
44045;PMS7003;29709;52.396;16.796;2023-05-19T07:48:47;1;0;0
44045;PMS7003;29709;52.396;16.796;2023-05-19T07:52:00;1;0;0
44045;PMS7003;29709;52.396;16.796;2023-05-19T07:55:16;2;1;0
44045;PMS7003;29709;52.396;16.796;2023-05-19T07:58:30;1;1;1
44045;PMS7003;29709;52.396;16.796;2023-05-19T08:01:44;1;1;0
44045;PMS7003;29709;52.396;16.796;2023-05-19T08:04:57;1;0;0
44045;PMS7003;29709;52.396;16.796;2023-05-19T08:08:10;2;0;0
44045;PMS7003;29709;52.396;16.796;2023-05-19T08:11:28;1;1;0
44045;PMS7003;29709;52.396;16.796;2023-05-19T08:14:41;1;1;0
44045;PMS7003;29709;52.396;16.796;2023-05-19T08:17:54;1;1;0
44045;PMS7003;29709;52.396;16.796;2023-05-19T08:21:07;4;2;1
44045;PMS7003;29709;52.396;16.796;2023-05-19T08:24:20;0;0;0
44045;PMS7003;29709;52.396;16.796;2023-05-19T08:28:08;1;1;1
44045;PMS7003;29709;52.396;16.796;2023-05-19T08:31:22;1;1;1
44045;PMS7003;29709;52.396;16.796;2023-05-19T08:34:36;1;1;1
44045;PMS7003;29709;52.396;16.796;2023-05-19T08:37:49;3;2;2
44045;PMS7003;29709;52.396;16.796;2023-05-19T08:41:03;1;1;1
44045;PMS7003;29709;52.396;16.796;2023-05-19T08:44:17;1;1;1
44045;PMS7003;29709;52.396;16.796;2023-05-19T08:47:30;0;0;0
44045;PMS7003;29709;52.396;16.796;2023-05-19T08:50:56;2;2;1
44045;PMS7003;29709;52.396;16.796;2023-05-19T08:54:14;1;1;1
44045;PMS7003;29709;52.396;16.796;2023-05-19T08:57:31;1;1;1
44045;PMS7003;29709;52.396;16.796;2023-05-19T09:00:45;1;1;1
44045;PMS7003;29709;52.396;16.796;2023-05-19T09:04:00;1;1;1
44045;PMS7003;29709;52.396;16.796;2023-05-19T09:07:15;1;1;1
44045;PMS7003;29709;52.396;16.796;2023-05-19T09:10:28;1;1;1
44045;PMS7003;29709;52.396;16.796;2023-05-19T09:13:42;2;2;1
44045;PMS7003;29709;52.396;16.796;2023-05-19T09:16:55;1;1;1
44045;PMS7003;29709;52.396;16.796;2023-05-19T09:20:09;1;1;1
44045;PMS7003;29709;52.396;16.796;2023-05-19T09:23:29;1;1;0
44045;PMS7003;29709;52.396;16.796;2023-05-19T09:26:45;1;1;1
44045;PMS7003;29709;52.396;16.796;2023-05-19T09:30:05;1;1;1
44045;PMS7003;29709;52.396;16.796;2023-05-19T09:33:21;2;1;1
44045;PMS7003;29709;52.396;16.796;2023-05-19T09:36:34;1;1;0
44045;PMS7003;29709;52.396;16.796;2023-05-19T09:39:48;0;0;0
44045;PMS7003;29709;52.396;16.796;2023-05-19T09:43:06;0;0;0
44045;PMS7003;29709;52.396;16.796;2023-05-19T09:46:23;1;1;1
44045;PMS7003;29709;52.396;16.796;2023-05-19T09:49:44;1;1;1
44045;PMS7003;29709;52.396;16.796;2023-05-19T09:52:59;2;2;1
44045;PMS7003;29709;52.396;16.796;2023-05-19T09:56:12;2;1;1
44045;PMS7003;29709;52.396;16.796;2023-05-19T09:59:27;2;1;1
44045;PMS7003;29709;52.396;16.796;2023-05-19T10:02:41;1;1;1
44045;PMS7003;29709;52.396;16.796;2023-05-19T10:05:55;2;2;1
44045;PMS7003;29709;52.396;16.796;2023-05-19T10:09:09;1;1;1
44045;PMS7003;29709;52.396;16.796;2023-05-19T10:12:24;3;2;2
44045;PMS7003;29709;52.396;16.796;2023-05-19T10:15:41;1;1;1
44045;PMS7003;29709;52.396;16.796;2023-05-19T10:18:54;2;1;1
44045;PMS7003;29709;52.396;16.796;2023-05-19T10:22:11;0;0;0
44045;PMS7003;29709;52.396;16.796;2023-05-19T10:25:24;2;1;1
44045;PMS7003;29709;52.396;16.796;2023-05-19T10:28:38;1;1;1
44045;PMS7003;29709;52.396;16.796;2023-05-19T10:31:55;2;1;1
44045;PMS7003;29709;52.396;16.796;2023-05-19T10:35:19;1;1;1
44045;PMS7003;29709;52.396;16.796;2023-05-19T10:42:11;1;1;1
44045;PMS7003;29709;52.396;16.796;2023-05-19T10:45:29;1;1;1
44045;PMS7003;29709;52.396;16.796;2023-05-19T10:48:51;2;2;2
44045;PMS7003;29709;52.396;16.796;2023-05-19T10:58:54;2;2;2
44045;PMS7003;29709;52.396;16.796;2023-05-19T11:02:09;2;1;1
44045;PMS7003;29709;52.396;16.796;2023-05-19T11:08:42;1;1;1
44045;PMS7003;29709;52.396;16.796;2023-05-19T11:11:55;4;1;1
44045;PMS7003;29709;52.396;16.796;2023-05-19T11:15:15;3;3;3
44045;PMS7003;29709;52.396;16.796;2023-05-19T11:18:30;4;2;2
44045;PMS7003;29709;52.396;16.796;2023-05-19T11:21:47;2;2;1
44045;PMS7003;29709;52.396;16.796;2023-05-19T11:25:06;1;1;1
44045;PMS7003;29709;52.396;16.796;2023-05-19T11:28:21;1;1;1
44045;PMS7003;29709;52.396;16.796;2023-05-19T11:31:40;2;2;1
44045;PMS7003;29709;52.396;16.796;2023-05-19T11:34:57;1;1;1
44045;PMS7003;29709;52.396;16.796;2023-05-19T11:38:11;3;2;1
44045;PMS7003;29709;52.396;16.796;2023-05-19T11:41:25;2;2;1
44045;PMS7003;29709;52.396;16.796;2023-05-19T11:44:42;2;2;2
44045;PMS7003;29709;52.396;16.796;2023-05-19T11:47:59;3;3;2
44045;PMS7003;29709;52.396;16.796;2023-05-19T11:51:12;3;2;2
44045;PMS7003;29709;52.396;16.796;2023-05-19T11:54:29;4;2;2
44045;PMS7003;29709;52.396;16.796;2023-05-19T12:01:10;2;2;2
44045;PMS7003;29709;52.396;16.796;2023-05-19T12:04:23;1;1;0
44045;PMS7003;29709;52.396;16.796;2023-05-19T12:07:37;2;2;1
44045;PMS7003;29709;52.396;16.796;2023-05-19T12:10:51;1;1;1
44045;PMS7003;29709;52.396;16.796;2023-05-19T12:14:04;2;2;1
44045;PMS7003;29709;52.396;16.796;2023-05-19T12:17:18;4;3;3
44045;PMS7003;29709;52.396;16.796;2023-05-19T12:20:32;3;1;1
44045;PMS7003;29709;52.396;16.796;2023-05-19T12:23:49;3;2;2
44045;PMS7003;29709;52.396;16.796;2023-05-19T12:30:25;2;2;2
44045;PMS7003;29709;52.396;16.796;2023-05-19T12:33:43;3;3;2
44045;PMS7003;29709;52.396;16.796;2023-05-19T12:36:57;2;1;1
44045;PMS7003;29709;52.396;16.796;2023-05-19T12:40:14;3;2;1
44045;PMS7003;29709;52.396;16.796;2023-05-19T12:43:28;2;2;1
44045;PMS7003;29709;52.396;16.796;2023-05-19T12:46:42;2;2;2
44045;PMS7003;29709;52.396;16.796;2023-05-19T12:50:05;2;1;1
44045;PMS7003;29709;52.396;16.796;2023-05-19T12:53:16;2;1;1
44045;PMS7003;29709;52.396;16.796;2023-05-19T12:56:29;3;3;2
44045;PMS7003;29709;52.396;16.796;2023-05-19T12:59:42;1;1;1
44045;PMS7003;29709;52.396;16.796;2023-05-19T13:06:16;2;2;2
44045;PMS7003;29709;52.396;16.796;2023-05-19T13:09:30;2;2;2
44045;PMS7003;29709;52.396;16.796;2023-05-19T13:12:47;1;1;1
44045;PMS7003;29709;52.396;16.796;2023-05-19T13:16:01;0;0;0
44045;PMS7003;29709;52.396;16.796;2023-05-19T13:19:16;3;3;2
44045;PMS7003;29709;52.396;16.796;2023-05-19T13:22:30;1;1;0
44045;PMS7003;29709;52.396;16.796;2023-05-19T13:25:43;2;2;1
44045;PMS7003;29709;52.396;16.796;2023-05-19T13:28:56;4;3;2
44045;PMS7003;29709;52.396;16.796;2023-05-19T13:32:09;5;3;3
44045;PMS7003;29709;52.396;16.796;2023-05-19T13:35:23;3;2;1
44045;PMS7003;29709;52.396;16.796;2023-05-19T13:38:36;2;1;1
44045;PMS7003;29709;52.396;16.796;2023-05-19T13:41:49;2;2;2
44045;PMS7003;29709;52.396;16.796;2023-05-19T13:45:02;2;2;2
44045;PMS7003;29709;52.396;16.796;2023-05-19T13:48:16;2;2;1
44045;PMS7003;29709;52.396;16.796;2023-05-19T13:51:30;1;0;0
44045;PMS7003;29709;52.396;16.796;2023-05-19T13:54:43;2;2;1
44045;PMS7003;29709;52.396;16.796;2023-05-19T13:57:56;2;2;2
44045;PMS7003;29709;52.396;16.796;2023-05-19T14:01:09;2;2;1
44045;PMS7003;29709;52.396;16.796;2023-05-19T14:04:23;1;1;1
44045;PMS7003;29709;52.396;16.796;2023-05-19T14:07:36;2;2;1
44045;PMS7003;29709;52.396;16.796;2023-05-19T14:10:50;2;1;1
44045;PMS7003;29709;52.396;16.796;2023-05-19T14:14:03;3;1;1
44045;PMS7003;29709;52.396;16.796;2023-05-19T14:17:17;1;1;1
44045;PMS7003;29709;52.396;16.796;2023-05-19T14:20:30;3;2;2
44045;PMS7003;29709;52.396;16.796;2023-05-19T14:23:44;1;1;1
44045;PMS7003;29709;52.396;16.796;2023-05-19T14:26:57;1;1;0
44045;PMS7003;29709;52.396;16.796;2023-05-19T14:30:11;3;1;1
44045;PMS7003;29709;52.396;16.796;2023-05-19T14:33:24;3;2;2
44045;PMS7003;29709;52.396;16.796;2023-05-19T14:36:38;2;2;2
44045;PMS7003;29709;52.396;16.796;2023-05-19T14:39:51;3;3;3
44045;PMS7003;29709;52.396;16.796;2023-05-19T14:43:04;6;3;2
44045;PMS7003;29709;52.396;16.796;2023-05-19T14:46:17;2;2;2
44045;PMS7003;29709;52.396;16.796;2023-05-19T14:49:32;2;2;2
44045;PMS7003;29709;52.396;16.796;2023-05-19T14:52:45;2;2;2
44045;PMS7003;29709;52.396;16.796;2023-05-19T14:55:58;3;2;2
44045;PMS7003;29709;52.396;16.796;2023-05-19T14:59:14;3;3;2
44045;PMS7003;29709;52.396;16.796;2023-05-19T15:02:27;3;2;2
44045;PMS7003;29709;52.396;16.796;2023-05-19T15:05:40;4;3;3
44045;PMS7003;29709;52.396;16.796;2023-05-19T15:12:21;2;2;2
44045;PMS7003;29709;52.396;16.796;2023-05-19T15:15:34;3;3;2
44045;PMS7003;29709;52.396;16.796;2023-05-19T15:18:48;2;2;2
44045;PMS7003;29709;52.396;16.796;2023-05-19T15:22:03;2;1;1
44045;PMS7003;29709;52.396;16.796;2023-05-19T15:25:16;2;2;2
44045;PMS7003;29709;52.396;16.796;2023-05-19T15:28:29;2;1;1
44045;PMS7003;29709;52.396;16.796;2023-05-19T15:35:05;2;2;2
44045;PMS7003;29709;52.396;16.796;2023-05-19T15:38:18;2;2;1
44045;PMS7003;29709;52.396;16.796;2023-05-19T15:41:33;3;3;2
44045;PMS7003;29709;52.396;16.796;2023-05-19T15:44:46;1;1;1
44045;PMS7003;29709;52.396;16.796;2023-05-19T15:48:00;1;1;1
44045;PMS7003;29709;52.396;16.796;2023-05-19T15:51:15;3;2;2
44045;PMS7003;29709;52.396;16.796;2023-05-19T15:54:29;4;2;2
44045;PMS7003;29709;52.396;16.796;2023-05-19T15:57:42;2;2;1
44045;PMS7003;29709;52.396;16.796;2023-05-19T16:00:55;4;4;3
44045;PMS7003;29709;52.396;16.796;2023-05-19T16:04:08;2;2;2
44045;PMS7003;29709;52.396;16.796;2023-05-19T16:07:22;2;2;1
44045;PMS7003;29709;52.396;16.796;2023-05-19T16:10:35;4;3;3
44045;PMS7003;29709;52.396;16.796;2023-05-19T16:13:48;6;4;3
44045;PMS7003;29709;52.396;16.796;2023-05-19T16:17:02;2;2;1
44045;PMS7003;29709;52.396;16.796;2023-05-19T16:20:21;2;2;2
44045;PMS7003;29709;52.396;16.796;2023-05-19T16:23:39;3;3;2
44045;PMS7003;29709;52.396;16.796;2023-05-19T16:26:52;6;6;5
44045;PMS7003;29709;52.396;16.796;2023-05-19T16:30:06;2;1;0
44045;PMS7003;29709;52.396;16.796;2023-05-19T16:33:20;2;2;1
44045;PMS7003;29709;52.396;16.796;2023-05-19T16:36:33;3;2;1
44045;PMS7003;29709;52.396;16.796;2023-05-19T16:39:46;2;2;2
44045;PMS7003;29709;52.396;16.796;2023-05-19T16:43:00;3;3;3
44045;PMS7003;29709;52.396;16.796;2023-05-19T16:46:13;2;2;2
44045;PMS7003;29709;52.396;16.796;2023-05-19T16:49:26;3;3;2
44045;PMS7003;29709;52.396;16.796;2023-05-19T16:52:39;2;2;2
44045;PMS7003;29709;52.396;16.796;2023-05-19T16:55:53;2;2;2
44045;PMS7003;29709;52.396;16.796;2023-05-19T16:59:07;3;2;1
44045;PMS7003;29709;52.396;16.796;2023-05-19T17:02:21;3;3;2
44045;PMS7003;29709;52.396;16.796;2023-05-19T17:05:34;2;2;1
44045;PMS7003;29709;52.396;16.796;2023-05-19T17:08:52;4;3;3
44045;PMS7003;29709;52.396;16.796;2023-05-19T17:12:06;3;3;3
44045;PMS7003;29709;52.396;16.796;2023-05-19T17:15:20;1;1;1
44045;PMS7003;29709;52.396;16.796;2023-05-19T17:18:33;1;1;1
44045;PMS7003;29709;52.396;16.796;2023-05-19T17:21:47;4;2;2
44045;PMS7003;29709;52.396;16.796;2023-05-19T17:25:00;4;3;3
44045;PMS7003;29709;52.396;16.796;2023-05-19T17:28:13;4;3;3
44045;PMS7003;29709;52.396;16.796;2023-05-19T17:31:27;3;3;2
44045;PMS7003;29709;52.396;16.796;2023-05-19T17:34:40;4;4;3
44045;PMS7003;29709;52.396;16.796;2023-05-19T17:37:53;5;4;3
44045;PMS7003;29709;52.396;16.796;2023-05-19T17:41:08;3;3;2
44045;PMS7003;29709;52.396;16.796;2023-05-19T17:44:21;0;0;0
44045;PMS7003;29709;52.396;16.796;2023-05-19T17:47:34;7;6;4
44045;PMS7003;29709;52.396;16.796;2023-05-19T17:50:47;4;3;2
44045;PMS7003;29709;52.396;16.796;2023-05-19T17:54:01;2;1;1
44045;PMS7003;29709;52.396;16.796;2023-05-19T17:57:15;3;3;2
44045;PMS7003;29709;52.396;16.796;2023-05-19T18:00:29;3;3;2
44045;PMS7003;29709;52.396;16.796;2023-05-19T18:03:44;4;3;2
44045;PMS7003;29709;52.396;16.796;2023-05-19T18:07:01;4;3;2
44045;PMS7003;29709;52.396;16.796;2023-05-19T18:10:15;3;3;3
44045;PMS7003;29709;52.396;16.796;2023-05-19T18:13:29;5;4;3
44045;PMS7003;29709;52.396;16.796;2023-05-19T18:16:42;2;2;2
44045;PMS7003;29709;52.396;16.796;2023-05-19T18:19:55;3;3;2
44045;PMS7003;29709;52.396;16.796;2023-05-19T18:23:08;5;2;2
44045;PMS7003;29709;52.396;16.796;2023-05-19T18:26:22;3;2;2
44045;PMS7003;29709;52.396;16.796;2023-05-19T18:29:35;2;2;1
44045;PMS7003;29709;52.396;16.796;2023-05-19T18:32:48;2;2;1
44045;PMS7003;29709;52.396;16.796;2023-05-19T18:36:02;2;2;2
44045;PMS7003;29709;52.396;16.796;2023-05-19T18:39:15;3;2;2
44045;PMS7003;29709;52.396;16.796;2023-05-19T18:42:29;2;1;1
44045;PMS7003;29709;52.396;16.796;2023-05-19T18:45:42;4;3;2
44045;PMS7003;29709;52.396;16.796;2023-05-19T18:48:55;3;3;2
44045;PMS7003;29709;52.396;16.796;2023-05-19T18:52:08;3;3;2
44045;PMS7003;29709;52.396;16.796;2023-05-19T18:55:22;5;3;3
44045;PMS7003;29709;52.396;16.796;2023-05-19T18:58:36;5;4;3
44045;PMS7003;29709;52.396;16.796;2023-05-19T19:01:49;7;3;2
44045;PMS7003;29709;52.396;16.796;2023-05-19T19:05:02;3;3;2
44045;PMS7003;29709;52.396;16.796;2023-05-19T19:08:20;4;2;1
44045;PMS7003;29709;52.396;16.796;2023-05-19T19:11:34;2;2;1
44045;PMS7003;29709;52.396;16.796;2023-05-19T19:14:47;4;3;2
44045;PMS7003;29709;52.396;16.796;2023-05-19T19:18:00;4;4;3
44045;PMS7003;29709;52.396;16.796;2023-05-19T19:21:14;2;2;2
44045;PMS7003;29709;52.396;16.796;2023-05-19T19:24:27;4;4;4
44045;PMS7003;29709;52.396;16.796;2023-05-19T19:27:43;3;2;1
44045;PMS7003;29709;52.396;16.796;2023-05-19T19:30:57;6;5;3
44045;PMS7003;29709;52.396;16.796;2023-05-19T19:34:10;5;5;4
44045;PMS7003;29709;52.396;16.796;2023-05-19T19:37:24;8;7;6
44045;PMS7003;29709;52.396;16.796;2023-05-19T19:40:38;4;3;2
44045;PMS7003;29709;52.396;16.796;2023-05-19T19:43:51;5;4;3
44045;PMS7003;29709;52.396;16.796;2023-05-19T19:47:05;2;2;2
44045;PMS7003;29709;52.396;16.796;2023-05-19T19:50:18;6;3;2
44045;PMS7003;29709;52.396;16.796;2023-05-19T19:53:31;4;4;3
44045;PMS7003;29709;52.396;16.796;2023-05-19T19:56:45;5;4;4
44045;PMS7003;29709;52.396;16.796;2023-05-19T19:59:58;7;5;5
44045;PMS7003;29709;52.396;16.796;2023-05-19T20:03:20;6;5;4
44045;PMS7003;29709;52.396;16.796;2023-05-19T20:06:33;3;3;3
44045;PMS7003;29709;52.396;16.796;2023-05-19T20:09:48;4;3;2
44045;PMS7003;29709;52.396;16.796;2023-05-19T20:13:04;4;4;3
44045;PMS7003;29709;52.396;16.796;2023-05-19T20:16:17;4;3;2
44045;PMS7003;29709;52.396;16.796;2023-05-19T20:19:31;5;4;3
44045;PMS7003;29709;52.396;16.796;2023-05-19T20:22:44;4;3;3
44045;PMS7003;29709;52.396;16.796;2023-05-19T20:25:58;7;4;3
44045;PMS7003;29709;52.396;16.796;2023-05-19T20:29:11;2;2;2
44045;PMS7003;29709;52.396;16.796;2023-05-19T20:32:24;3;2;2
44045;PMS7003;29709;52.396;16.796;2023-05-19T20:35:37;3;3;2
44045;PMS7003;29709;52.396;16.796;2023-05-19T20:38:50;3;2;2
44045;PMS7003;29709;52.396;16.796;2023-05-19T20:42:04;4;4;3
44045;PMS7003;29709;52.396;16.796;2023-05-19T20:45:19;2;2;1
44045;PMS7003;29709;52.396;16.796;2023-05-19T20:48:33;4;3;2
44045;PMS7003;29709;52.396;16.796;2023-05-19T20:51:46;5;4;4
44045;PMS7003;29709;52.396;16.796;2023-05-19T20:55:00;3;3;2
44045;PMS7003;29709;52.396;16.796;2023-05-19T20:58:13;5;4;3
44045;PMS7003;29709;52.396;16.796;2023-05-19T21:01:27;5;4;3
44045;PMS7003;29709;52.396;16.796;2023-05-19T21:04:41;5;4;4
44045;PMS7003;29709;52.396;16.796;2023-05-19T21:07:55;4;4;3
44045;PMS7003;29709;52.396;16.796;2023-05-19T21:11:08;7;4;4
44045;PMS7003;29709;52.396;16.796;2023-05-19T21:14:22;7;4;4
44045;PMS7003;29709;52.396;16.796;2023-05-19T21:17:37;4;4;3
44045;PMS7003;29709;52.396;16.796;2023-05-19T21:20:51;5;4;3
44045;PMS7003;29709;52.396;16.796;2023-05-19T21:24:04;5;5;4
44045;PMS7003;29709;52.396;16.796;2023-05-19T21:27:18;5;4;4
44045;PMS7003;29709;52.396;16.796;2023-05-19T21:30:31;5;4;3
44045;PMS7003;29709;52.396;16.796;2023-05-19T21:33:44;6;6;4
44045;PMS7003;29709;52.396;16.796;2023-05-19T21:36:57;5;4;4
44045;PMS7003;29709;52.396;16.796;2023-05-19T21:40:11;5;5;4
44045;PMS7003;29709;52.396;16.796;2023-05-19T21:43:24;2;1;1
44045;PMS7003;29709;52.396;16.796;2023-05-19T21:46:37;5;4;4
44045;PMS7003;29709;52.396;16.796;2023-05-19T21:49:51;4;4;3
44045;PMS7003;29709;52.396;16.796;2023-05-19T21:53:04;6;4;3
44045;PMS7003;29709;52.396;16.796;2023-05-19T21:56:17;5;4;3
44045;PMS7003;29709;52.396;16.796;2023-05-19T21:59:30;8;7;5
44045;PMS7003;29709;52.396;16.796;2023-05-19T22:02:43;6;5;5
44045;PMS7003;29709;52.396;16.796;2023-05-19T22:05:59;4;4;4
44045;PMS7003;29709;52.396;16.796;2023-05-19T22:09:13;5;4;3
44045;PMS7003;29709;52.396;16.796;2023-05-19T22:12:26;3;3;3
44045;PMS7003;29709;52.396;16.796;2023-05-19T22:15:39;4;4;4
44045;PMS7003;29709;52.396;16.796;2023-05-19T22:18:53;6;4;4
44045;PMS7003;29709;52.396;16.796;2023-05-19T22:22:06;5;4;3
44045;PMS7003;29709;52.396;16.796;2023-05-19T22:25:20;6;4;4